sensor_id;sensor_type;location;lat;lon;timestamp;P1;durP1;ratioP1;P2;durP2;ratioP2
27566;SDS011;15006;48.584;9.186;2024-02-23T00:01:17;0.80;;;0.20;;
27566;SDS011;15006;48.584;9.186;2024-02-23T00:03:43;1.45;;;0.20;;
27566;SDS011;15006;48.584;9.186;2024-02-23T00:06:09;0.50;;;0.32;;
27566;SDS011;15006;48.584;9.186;2024-02-23T00:08:35;1.27;;;0.32;;
27566;SDS011;15006;48.584;9.186;2024-02-23T00:11:01;0.20;;;0.20;;
27566;SDS011;15006;48.584;9.186;2024-02-23T00:13:27;0.77;;;0.30;;
27566;SDS011;15006;48.584;9.186;2024-02-23T00:15:53;1.88;;;0.20;;
27566;SDS011;15006;48.584;9.186;2024-02-23T00:18:19;0.20;;;0.20;;
27566;SDS011;15006;48.584;9.186;2024-02-23T00:20:46;0.22;;;0.22;;
27566;SDS011;15006;48.584;9.186;2024-02-23T00:23:12;0.43;;;0.20;;
27566;SDS011;15006;48.584;9.186;2024-02-23T00:25:38;0.28;;;0.28;;
27566;SDS011;15006;48.584;9.186;2024-02-23T00:28:05;0.20;;;0.20;;
27566;SDS011;15006;48.584;9.186;2024-02-23T00:30:31;0.82;;;0.30;;
27566;SDS011;15006;48.584;9.186;2024-02-23T00:32:57;0.63;;;0.30;;
27566;SDS011;15006;48.584;9.186;2024-02-23T00:35:23;0.28;;;0.28;;
27566;SDS011;15006;48.584;9.186;2024-02-23T00:37:49;0.50;;;0.35;;
27566;SDS011;15006;48.584;9.186;2024-02-23T00:40:15;1.55;;;0.40;;
27566;SDS011;15006;48.584;9.186;2024-02-23T00:42:41;0.20;;;0.20;;
27566;SDS011;15006;48.584;9.186;2024-02-23T00:45:07;1.45;;;0.30;;
27566;SDS011;15006;48.584;9.186;2024-02-23T00:47:33;0.30;;;0.30;;
27566;SDS011;15006;48.584;9.186;2024-02-23T00:50:01;0.30;;;0.30;;
27566;SDS011;15006;48.584;9.186;2024-02-23T00:52:27;0.60;;;0.30;;
27566;SDS011;15006;48.584;9.186;2024-02-23T00:54:53;1.90;;;0.38;;
27566;SDS011;15006;48.584;9.186;2024-02-23T00:57:19;0.68;;;0.30;;
27566;SDS011;15006;48.584;9.186;2024-02-23T00:59:52;1.35;;;0.50;;
27566;SDS011;15006;48.584;9.186;2024-02-23T01:02:18;1.85;;;0.30;;
27566;SDS011;15006;48.584;9.186;2024-02-23T01:04:44;0.70;;;0.40;;
27566;SDS011;15006;48.584;9.186;2024-02-23T01:07:10;0.40;;;0.40;;
27566;SDS011;15006;48.584;9.186;2024-02-23T01:09:36;0.60;;;0.50;;
27566;SDS011;15006;48.584;9.186;2024-02-23T01:12:02;1.17;;;0.40;;
27566;SDS011;15006;48.584;9.186;2024-02-23T01:14:28;1.73;;;0.43;;
27566;SDS011;15006;48.584;9.186;2024-02-23T01:16:54;2.75;;;0.60;;
27566;SDS011;15006;48.584;9.186;2024-02-23T01:19:20;0.60;;;0.47;;
27566;SDS011;15006;48.584;9.186;2024-02-23T01:21:47;1.58;;;0.50;;
27566;SDS011;15006;48.584;9.186;2024-02-23T01:24:14;2.15;;;0.60;;
27566;SDS011;15006;48.584;9.186;2024-02-23T01:26:40;2.67;;;0.60;;
27566;SDS011;15006;48.584;9.186;2024-02-23T01:29:06;1.45;;;0.40;;
27566;SDS011;15006;48.584;9.186;2024-02-23T01:31:32;2.05;;;0.80;;
27566;SDS011;15006;48.584;9.186;2024-02-23T01:33:58;1.65;;;0.40;;
27566;SDS011;15006;48.584;9.186;2024-02-23T01:36:24;0.93;;;0.60;;
27566;SDS011;15006;48.584;9.186;2024-02-23T01:38:50;0.50;;;0.50;;
27566;SDS011;15006;48.584;9.186;2024-02-23T01:41:16;0.95;;;0.40;;
27566;SDS011;15006;48.584;9.186;2024-02-23T01:43:42;2.35;;;0.40;;
27566;SDS011;15006;48.584;9.186;2024-02-23T01:46:08;1.60;;;0.55;;
27566;SDS011;15006;48.584;9.186;2024-02-23T01:48:34;1.73;;;0.60;;
27566;SDS011;15006;48.584;9.186;2024-02-23T01:51:00;0.82;;;0.45;;
27566;SDS011;15006;48.584;9.186;2024-02-23T01:53:27;1.83;;;0.60;;
27566;SDS011;15006;48.584;9.186;2024-02-23T01:55:53;1.52;;;0.55;;
27566;SDS011;15006;48.584;9.186;2024-02-23T01:58:19;1.35;;;0.43;;
27566;SDS011;15006;48.584;9.186;2024-02-23T02:00:46;1.17;;;0.50;;
27566;SDS011;15006;48.584;9.186;2024-02-23T02:03:12;0.50;;;0.50;;
27566;SDS011;15006;48.584;9.186;2024-02-23T02:05:38;1.00;;;0.55;;
27566;SDS011;15006;48.584;9.186;2024-02-23T02:08:04;1.15;;;0.52;;
27566;SDS011;15006;48.584;9.186;2024-02-23T02:10:31;0.68;;;0.50;;
27566;SDS011;15006;48.584;9.186;2024-02-23T02:13:06;0.40;;;0.40;;
27566;SDS011;15006;48.584;9.186;2024-02-23T02:15:32;1.25;;;0.50;;
27566;SDS011;15006;48.584;9.186;2024-02-23T02:17:57;0.52;;;0.52;;
27566;SDS011;15006;48.584;9.186;2024-02-23T02:20:24;1.60;;;0.73;;
27566;SDS011;15006;48.584;9.186;2024-02-23T02:22:51;0.70;;;0.50;;
27566;SDS011;15006;48.584;9.186;2024-02-23T02:25:17;0.30;;;0.30;;
27566;SDS011;15006;48.584;9.186;2024-02-23T02:27:44;0.65;;;0.40;;
27566;SDS011;15006;48.584;9.186;2024-02-23T02:30:13;0.38;;;0.38;;
27566;SDS011;15006;48.584;9.186;2024-02-23T02:32:39;1.67;;;0.30;;
27566;SDS011;15006;48.584;9.186;2024-02-23T02:35:06;0.50;;;0.50;;
27566;SDS011;15006;48.584;9.186;2024-02-23T02:37:32;0.65;;;0.38;;
27566;SDS011;15006;48.584;9.186;2024-02-23T02:39:58;0.30;;;0.30;;
27566;SDS011;15006;48.584;9.186;2024-02-23T02:42:24;0.57;;;0.40;;
27566;SDS011;15006;48.584;9.186;2024-02-23T02:44:51;0.25;;;0.25;;
27566;SDS011;15006;48.584;9.186;2024-02-23T02:47:16;0.40;;;0.40;;
27566;SDS011;15006;48.584;9.186;2024-02-23T02:49:42;0.43;;;0.40;;
27566;SDS011;15006;48.584;9.186;2024-02-23T02:52:08;0.40;;;0.40;;
27566;SDS011;15006;48.584;9.186;2024-02-23T02:54:34;0.35;;;0.30;;
27566;SDS011;15006;48.584;9.186;2024-02-23T02:57:00;1.30;;;0.57;;
27566;SDS011;15006;48.584;9.186;2024-02-23T02:59:27;0.40;;;0.40;;
27566;SDS011;15006;48.584;9.186;2024-02-23T03:01:52;0.30;;;0.30;;
27566;SDS011;15006;48.584;9.186;2024-02-23T03:04:19;2.08;;;0.30;;
27566;SDS011;15006;48.584;9.186;2024-02-23T03:06:45;0.57;;;0.40;;
27566;SDS011;15006;48.584;9.186;2024-02-23T03:09:10;0.40;;;0.40;;
27566;SDS011;15006;48.584;9.186;2024-02-23T03:11:37;0.52;;;0.30;;
27566;SDS011;15006;48.584;9.186;2024-02-23T03:14:03;0.73;;;0.30;;
27566;SDS011;15006;48.584;9.186;2024-02-23T03:16:29;0.52;;;0.32;;
27566;SDS011;15006;48.584;9.186;2024-02-23T03:18:56;0.38;;;0.30;;
27566;SDS011;15006;48.584;9.186;2024-02-23T03:21:22;0.30;;;0.20;;
27566;SDS011;15006;48.584;9.186;2024-02-23T03:23:48;0.20;;;0.20;;
27566;SDS011;15006;48.584;9.186;2024-02-23T03:26:14;0.65;;;0.30;;
27566;SDS011;15006;48.584;9.186;2024-02-23T03:28:42;0.55;;;0.30;;
27566;SDS011;15006;48.584;9.186;2024-02-23T03:31:08;1.45;;;0.40;;
27566;SDS011;15006;48.584;9.186;2024-02-23T03:33:34;0.55;;;0.30;;
27566;SDS011;15006;48.584;9.186;2024-02-23T03:36:00;0.30;;;0.30;;
27566;SDS011;15006;48.584;9.186;2024-02-23T03:38:26;6.28;;;0.30;;
27566;SDS011;15006;48.584;9.186;2024-02-23T03:40:54;0.47;;;0.30;;
27566;SDS011;15006;48.584;9.186;2024-02-23T03:43:20;0.30;;;0.30;;
27566;SDS011;15006;48.584;9.186;2024-02-23T03:45:46;1.98;;;0.60;;
27566;SDS011;15006;48.584;9.186;2024-02-23T03:48:12;0.32;;;0.30;;
27566;SDS011;15006;48.584;9.186;2024-02-23T03:50:38;0.28;;;0.28;;
27566;SDS011;15006;48.584;9.186;2024-02-23T03:53:04;5.10;;;0.40;;
27566;SDS011;15006;48.584;9.186;2024-02-23T03:55:30;1.10;;;0.40;;
27566;SDS011;15006;48.584;9.186;2024-02-23T03:57:56;0.30;;;0.30;;
27566;SDS011;15006;48.584;9.186;2024-02-23T04:00:22;0.30;;;0.30;;
27566;SDS011;15006;48.584;9.186;2024-02-23T04:02:48;0.88;;;0.40;;
27566;SDS011;15006;48.584;9.186;2024-02-23T04:05:14;0.38;;;0.30;;
27566;SDS011;15006;48.584;9.186;2024-02-23T04:07:41;0.43;;;0.30;;
27566;SDS011;15006;48.584;9.186;2024-02-23T04:10:07;0.52;;;0.40;;
27566;SDS011;15006;48.584;9.186;2024-02-23T04:12:33;0.80;;;0.40;;
27566;SDS011;15006;48.584;9.186;2024-02-23T04:14:59;0.95;;;0.45;;
27566;SDS011;15006;48.584;9.186;2024-02-23T04:17:25;1.95;;;0.30;;
27566;SDS011;15006;48.584;9.186;2024-02-23T04:19:51;0.50;;;0.50;;
27566;SDS011;15006;48.584;9.186;2024-02-23T04:22:17;0.40;;;0.40;;
27566;SDS011;15006;48.584;9.186;2024-02-23T04:24:43;0.80;;;0.60;;
27566;SDS011;15006;48.584;9.186;2024-02-23T04:27:08;0.40;;;0.40;;
27566;SDS011;15006;48.584;9.186;2024-02-23T04:29:34;0.57;;;0.35;;
27566;SDS011;15006;48.584;9.186;2024-02-23T04:32:00;0.40;;;0.40;;
27566;SDS011;15006;48.584;9.186;2024-02-23T04:34:27;2.60;;;0.57;;
27566;SDS011;15006;48.584;9.186;2024-02-23T04:36:53;0.50;;;0.50;;
27566;SDS011;15006;48.584;9.186;2024-02-23T04:39:20;0.70;;;0.50;;
27566;SDS011;15006;48.584;9.186;2024-02-23T04:41:47;2.00;;;0.50;;
27566;SDS011;15006;48.584;9.186;2024-02-23T04:44:12;0.50;;;0.50;;
27566;SDS011;15006;48.584;9.186;2024-02-23T04:46:38;0.70;;;0.70;;
27566;SDS011;15006;48.584;9.186;2024-02-23T04:49:04;0.75;;;0.60;;
27566;SDS011;15006;48.584;9.186;2024-02-23T04:51:30;1.70;;;0.63;;
27566;SDS011;15006;48.584;9.186;2024-02-23T04:53:56;3.75;;;0.50;;
27566;SDS011;15006;48.584;9.186;2024-02-23T04:56:22;2.35;;;0.57;;
27566;SDS011;15006;48.584;9.186;2024-02-23T04:58:48;1.73;;;0.50;;
27566;SDS011;15006;48.584;9.186;2024-02-23T05:01:14;0.73;;;0.50;;
27566;SDS011;15006;48.584;9.186;2024-02-23T05:03:40;1.20;;;0.50;;
27566;SDS011;15006;48.584;9.186;2024-02-23T05:06:06;0.50;;;0.50;;
27566;SDS011;15006;48.584;9.186;2024-02-23T05:08:32;0.70;;;0.45;;
27566;SDS011;15006;48.584;9.186;2024-02-23T05:10:58;0.93;;;0.73;;
27566;SDS011;15006;48.584;9.186;2024-02-23T05:13:24;1.85;;;0.70;;
27566;SDS011;15006;48.584;9.186;2024-02-23T05:15:51;2.05;;;0.60;;
27566;SDS011;15006;48.584;9.186;2024-02-23T05:18:19;0.77;;;0.60;;
27566;SDS011;15006;48.584;9.186;2024-02-23T05:20:45;1.45;;;0.50;;
27566;SDS011;15006;48.584;9.186;2024-02-23T05:23:11;0.80;;;0.80;;
27566;SDS011;15006;48.584;9.186;2024-02-23T05:25:37;0.47;;;0.47;;
27566;SDS011;15006;48.584;9.186;2024-02-23T05:28:03;2.35;;;0.70;;
27566;SDS011;15006;48.584;9.186;2024-02-23T05:30:29;1.50;;;0.80;;
27566;SDS011;15006;48.584;9.186;2024-02-23T05:32:57;0.75;;;0.75;;
27566;SDS011;15006;48.584;9.186;2024-02-23T05:35:24;4.07;;;0.90;;
27566;SDS011;15006;48.584;9.186;2024-02-23T05:37:51;0.73;;;0.70;;
27566;SDS011;15006;48.584;9.186;2024-02-23T05:40:17;2.60;;;0.93;;
27566;SDS011;15006;48.584;9.186;2024-02-23T05:42:43;1.77;;;0.95;;
27566;SDS011;15006;48.584;9.186;2024-02-23T05:45:09;0.70;;;0.68;;
27566;SDS011;15006;48.584;9.186;2024-02-23T05:47:36;3.22;;;1.10;;
27566;SDS011;15006;48.584;9.186;2024-02-23T05:50:10;2.45;;;1.30;;
27566;SDS011;15006;48.584;9.186;2024-02-23T05:52:36;2.83;;;1.33;;
27566;SDS011;15006;48.584;9.186;2024-02-23T05:55:02;1.67;;;1.35;;
27566;SDS011;15006;48.584;9.186;2024-02-23T05:57:29;3.25;;;1.85;;
27566;SDS011;15006;48.584;9.186;2024-02-23T05:59:56;1.80;;;1.00;;
27566;SDS011;15006;48.584;9.186;2024-02-23T06:02:22;1.40;;;1.30;;
27566;SDS011;15006;48.584;9.186;2024-02-23T06:04:48;4.13;;;2.00;;
27566;SDS011;15006;48.584;9.186;2024-02-23T06:07:14;1.88;;;1.60;;
27566;SDS011;15006;48.584;9.186;2024-02-23T06:09:41;2.58;;;2.00;;
27566;SDS011;15006;48.584;9.186;2024-02-23T06:12:08;3.63;;;1.98;;
27566;SDS011;15006;48.584;9.186;2024-02-23T06:14:34;1.88;;;1.27;;
27566;SDS011;15006;48.584;9.186;2024-02-23T06:17:01;1.38;;;1.23;;
27566;SDS011;15006;48.584;9.186;2024-02-23T06:19:28;1.75;;;1.55;;
27566;SDS011;15006;48.584;9.186;2024-02-23T06:21:54;2.53;;;1.55;;
27566;SDS011;15006;48.584;9.186;2024-02-23T06:24:20;2.60;;;1.42;;
27566;SDS011;15006;48.584;9.186;2024-02-23T06:26:46;1.70;;;1.60;;
27566;SDS011;15006;48.584;9.186;2024-02-23T06:29:14;2.42;;;2.22;;
27566;SDS011;15006;48.584;9.186;2024-02-23T06:31:40;4.43;;;2.33;;
27566;SDS011;15006;48.584;9.186;2024-02-23T06:34:07;3.10;;;1.48;;
27566;SDS011;15006;48.584;9.186;2024-02-23T06:36:33;3.80;;;2.38;;
27566;SDS011;15006;48.584;9.186;2024-02-23T06:38:59;6.82;;;4.13;;
27566;SDS011;15006;48.584;9.186;2024-02-23T06:41:25;2.90;;;2.60;;
27566;SDS011;15006;48.584;9.186;2024-02-23T06:43:51;8.70;;;3.95;;
27566;SDS011;15006;48.584;9.186;2024-02-23T06:46:18;8.40;;;7.55;;
27566;SDS011;15006;48.584;9.186;2024-02-23T06:48:48;3.63;;;2.30;;
27566;SDS011;15006;48.584;9.186;2024-02-23T06:51:14;8.20;;;2.17;;
27566;SDS011;15006;48.584;9.186;2024-02-23T06:53:41;8.65;;;6.68;;
27566;SDS011;15006;48.584;9.186;2024-02-23T06:56:07;6.53;;;1.88;;
27566;SDS011;15006;48.584;9.186;2024-02-23T06:58:34;5.78;;;1.15;;
27566;SDS011;15006;48.584;9.186;2024-02-23T07:01:00;4.85;;;0.90;;
27566;SDS011;15006;48.584;9.186;2024-02-23T07:03:28;6.45;;;1.50;;
27566;SDS011;15006;48.584;9.186;2024-02-23T07:05:55;1.48;;;1.27;;
27566;SDS011;15006;48.584;9.186;2024-02-23T07:08:21;3.22;;;0.95;;
27566;SDS011;15006;48.584;9.186;2024-02-23T07:10:47;7.05;;;6.38;;
27566;SDS011;15006;48.584;9.186;2024-02-23T07:13:12;4.60;;;4.05;;
27566;SDS011;15006;48.584;9.186;2024-02-23T07:15:38;10.32;;;6.53;;
27566;SDS011;15006;48.584;9.186;2024-02-23T07:18:04;2.80;;;2.35;;
27566;SDS011;15006;48.584;9.186;2024-02-23T07:20:34;5.53;;;3.88;;
27566;SDS011;15006;48.584;9.186;2024-02-23T07:23:01;5.57;;;5.05;;
27566;SDS011;15006;48.584;9.186;2024-02-23T07:25:27;2.28;;;1.55;;
27566;SDS011;15006;48.584;9.186;2024-02-23T07:27:53;2.33;;;1.15;;
27566;SDS011;15006;48.584;9.186;2024-02-23T07:30:19;3.78;;;1.00;;
27566;SDS011;15006;48.584;9.186;2024-02-23T07:32:45;2.35;;;1.10;;
27566;SDS011;15006;48.584;9.186;2024-02-23T07:35:14;4.78;;;0.95;;
27566;SDS011;15006;48.584;9.186;2024-02-23T07:37:40;2.53;;;1.15;;
27566;SDS011;15006;48.584;9.186;2024-02-23T07:40:06;1.52;;;1.40;;
27566;SDS011;15006;48.584;9.186;2024-02-23T07:42:33;3.38;;;1.60;;
27566;SDS011;15006;48.584;9.186;2024-02-23T07:45:01;2.50;;;1.92;;
27566;SDS011;15006;48.584;9.186;2024-02-23T07:47:32;5.10;;;2.30;;
27566;SDS011;15006;48.584;9.186;2024-02-23T07:49:58;6.07;;;2.22;;
27566;SDS011;15006;48.584;9.186;2024-02-23T07:52:25;8.63;;;3.20;;
27566;SDS011;15006;48.584;9.186;2024-02-23T07:54:51;5.03;;;2.90;;
27566;SDS011;15006;48.584;9.186;2024-02-23T07:57:21;3.58;;;2.58;;
27566;SDS011;15006;48.584;9.186;2024-02-23T07:59:47;3.47;;;2.25;;
27566;SDS011;15006;48.584;9.186;2024-02-23T08:02:14;4.43;;;1.60;;
27566;SDS011;15006;48.584;9.186;2024-02-23T08:04:40;1.40;;;1.20;;
27566;SDS011;15006;48.584;9.186;2024-02-23T08:07:07;2.45;;;1.13;;
27566;SDS011;15006;48.584;9.186;2024-02-23T08:09:33;4.03;;;1.90;;
27566;SDS011;15006;48.584;9.186;2024-02-23T08:11:59;5.03;;;1.80;;
27566;SDS011;15006;48.584;9.186;2024-02-23T08:14:25;2.28;;;1.52;;
27566;SDS011;15006;48.584;9.186;2024-02-23T08:16:51;2.75;;;1.17;;
27566;SDS011;15006;48.584;9.186;2024-02-23T08:19:17;4.78;;;1.10;;
27566;SDS011;15006;48.584;9.186;2024-02-23T08:21:43;2.95;;;1.35;;
27566;SDS011;15006;48.584;9.186;2024-02-23T08:24:09;1.75;;;1.27;;
27566;SDS011;15006;48.584;9.186;2024-02-23T08:26:35;4.82;;;2.67;;
27566;SDS011;15006;48.584;9.186;2024-02-23T08:29:03;3.05;;;1.10;;
27566;SDS011;15006;48.584;9.186;2024-02-23T08:31:30;5.57;;;1.73;;
27566;SDS011;15006;48.584;9.186;2024-02-23T08:33:56;3.70;;;1.40;;
27566;SDS011;15006;48.584;9.186;2024-02-23T08:36:22;2.83;;;1.33;;
27566;SDS011;15006;48.584;9.186;2024-02-23T08:38:48;4.63;;;1.48;;
27566;SDS011;15006;48.584;9.186;2024-02-23T08:41:14;3.65;;;0.80;;
27566;SDS011;15006;48.584;9.186;2024-02-23T08:43:40;2.47;;;0.93;;
27566;SDS011;15006;48.584;9.186;2024-02-23T08:46:06;3.72;;;0.90;;
27566;SDS011;15006;48.584;9.186;2024-02-23T08:48:32;3.70;;;1.35;;
27566;SDS011;15006;48.584;9.186;2024-02-23T08:50:58;3.00;;;1.33;;
27566;SDS011;15006;48.584;9.186;2024-02-23T08:53:24;5.13;;;1.33;;
27566;SDS011;15006;48.584;9.186;2024-02-23T08:55:50;2.25;;;1.52;;
27566;SDS011;15006;48.584;9.186;2024-02-23T08:58:16;2.45;;;1.30;;
27566;SDS011;15006;48.584;9.186;2024-02-23T09:00:42;5.55;;;1.60;;
27566;SDS011;15006;48.584;9.186;2024-02-23T09:03:08;3.03;;;1.33;;
27566;SDS011;15006;48.584;9.186;2024-02-23T09:05:34;4.53;;;1.40;;
27566;SDS011;15006;48.584;9.186;2024-02-23T09:08:00;2.30;;;1.08;;
27566;SDS011;15006;48.584;9.186;2024-02-23T09:10:26;3.22;;;1.00;;
27566;SDS011;15006;48.584;9.186;2024-02-23T09:12:52;3.63;;;1.20;;
27566;SDS011;15006;48.584;9.186;2024-02-23T09:15:18;2.22;;;1.55;;
27566;SDS011;15006;48.584;9.186;2024-02-23T09:17:44;2.40;;;1.48;;
27566;SDS011;15006;48.584;9.186;2024-02-23T09:20:10;2.58;;;1.50;;
27566;SDS011;15006;48.584;9.186;2024-02-23T09:22:37;5.82;;;1.80;;
27566;SDS011;15006;48.584;9.186;2024-02-23T09:25:02;1.80;;;1.42;;
27566;SDS011;15006;48.584;9.186;2024-02-23T09:27:30;2.85;;;1.70;;
27566;SDS011;15006;48.584;9.186;2024-02-23T09:29:56;1.90;;;1.20;;
27566;SDS011;15006;48.584;9.186;2024-02-23T09:32:24;3.40;;;1.52;;
27566;SDS011;15006;48.584;9.186;2024-02-23T09:34:50;3.35;;;1.13;;
27566;SDS011;15006;48.584;9.186;2024-02-23T09:37:16;2.45;;;1.27;;
27566;SDS011;15006;48.584;9.186;2024-02-23T09:39:42;6.80;;;1.70;;
27566;SDS011;15006;48.584;9.186;2024-02-23T09:42:09;2.67;;;1.60;;
27566;SDS011;15006;48.584;9.186;2024-02-23T09:44:38;5.15;;;1.50;;
27566;SDS011;15006;48.584;9.186;2024-02-23T09:47:07;4.10;;;1.77;;
27566;SDS011;15006;48.584;9.186;2024-02-23T09:49:38;2.30;;;1.10;;
27566;SDS011;15006;48.584;9.186;2024-02-23T09:52:06;1.90;;;1.08;;
27566;SDS011;15006;48.584;9.186;2024-02-23T09:54:35;4.63;;;1.65;;
27566;SDS011;15006;48.584;9.186;2024-02-23T09:57:06;1.67;;;1.08;;
27566;SDS011;15006;48.584;9.186;2024-02-23T09:59:34;3.72;;;1.20;;
27566;SDS011;15006;48.584;9.186;2024-02-23T10:02:14;2.72;;;1.00;;
27566;SDS011;15006;48.584;9.186;2024-02-23T10:04:42;3.90;;;1.30;;
27566;SDS011;15006;48.584;9.186;2024-02-23T10:07:09;5.85;;;1.30;;
27566;SDS011;15006;48.584;9.186;2024-02-23T10:09:36;2.78;;;1.10;;
27566;SDS011;15006;48.584;9.186;2024-02-23T10:12:02;5.18;;;1.45;;
27566;SDS011;15006;48.584;9.186;2024-02-23T10:14:29;2.42;;;1.13;;
27566;SDS011;15006;48.584;9.186;2024-02-23T10:16:54;3.10;;;1.20;;
27566;SDS011;15006;48.584;9.186;2024-02-23T10:19:21;6.05;;;1.20;;
27566;SDS011;15006;48.584;9.186;2024-02-23T10:21:47;4.18;;;1.15;;
27566;SDS011;15006;48.584;9.186;2024-02-23T10:24:15;3.17;;;1.15;;
27566;SDS011;15006;48.584;9.186;2024-02-23T10:26:44;2.65;;;1.30;;
27566;SDS011;15006;48.584;9.186;2024-02-23T10:29:10;4.18;;;1.10;;
27566;SDS011;15006;48.584;9.186;2024-02-23T10:31:36;5.07;;;1.17;;
27566;SDS011;15006;48.584;9.186;2024-02-23T10:34:07;7.43;;;1.25;;
27566;SDS011;15006;48.584;9.186;2024-02-23T10:36:41;2.00;;;0.80;;
27566;SDS011;15006;48.584;9.186;2024-02-23T10:39:08;1.92;;;0.90;;
27566;SDS011;15006;48.584;9.186;2024-02-23T10:41:35;5.18;;;1.17;;
27566;SDS011;15006;48.584;9.186;2024-02-23T10:44:04;5.30;;;1.27;;
27566;SDS011;15006;48.584;9.186;2024-02-23T10:46:31;4.32;;;1.90;;
27566;SDS011;15006;48.584;9.186;2024-02-23T10:48:58;4.47;;;1.10;;
27566;SDS011;15006;48.584;9.186;2024-02-23T10:51:24;2.60;;;0.77;;
27566;SDS011;15006;48.584;9.186;2024-02-23T10:53:50;4.05;;;0.90;;
27566;SDS011;15006;48.584;9.186;2024-02-23T10:56:18;3.13;;;1.17;;
27566;SDS011;15006;48.584;9.186;2024-02-23T10:58:45;9.77;;;1.42;;
27566;SDS011;15006;48.584;9.186;2024-02-23T11:01:12;4.60;;;1.10;;
27566;SDS011;15006;48.584;9.186;2024-02-23T11:03:40;2.70;;;0.85;;
27566;SDS011;15006;48.584;9.186;2024-02-23T11:06:11;5.28;;;1.20;;
27566;SDS011;15006;48.584;9.186;2024-02-23T11:08:37;4.90;;;1.00;;
27566;SDS011;15006;48.584;9.186;2024-02-23T11:11:10;9.73;;;1.52;;
27566;SDS011;15006;48.584;9.186;2024-02-23T11:13:37;4.68;;;1.08;;
27566;SDS011;15006;48.584;9.186;2024-02-23T11:16:04;4.68;;;1.13;;
27566;SDS011;15006;48.584;9.186;2024-02-23T11:18:31;4.57;;;1.00;;
27566;SDS011;15006;48.584;9.186;2024-02-23T11:21:00;5.13;;;1.60;;
27566;SDS011;15006;48.584;9.186;2024-02-23T11:23:40;3.67;;;0.75;;
27566;SDS011;15006;48.584;9.186;2024-02-23T11:26:11;6.72;;;1.30;;
27566;SDS011;15006;48.584;9.186;2024-02-23T11:28:56;3.25;;;1.60;;
27566;SDS011;15006;48.584;9.186;2024-02-23T11:31:24;7.93;;;1.63;;
27566;SDS011;15006;48.584;9.186;2024-02-23T11:33:55;3.63;;;1.20;;
27566;SDS011;15006;48.584;9.186;2024-02-23T11:36:22;3.25;;;1.20;;
27566;SDS011;15006;48.584;9.186;2024-02-23T11:38:58;3.35;;;1.35;;
27566;SDS011;15006;48.584;9.186;2024-02-23T11:41:26;2.55;;;1.13;;
27566;SDS011;15006;48.584;9.186;2024-02-23T11:43:53;1.05;;;0.82;;
27566;SDS011;15006;48.584;9.186;2024-02-23T11:46:21;9.02;;;3.40;;
27566;SDS011;15006;48.584;9.186;2024-02-23T11:48:48;7.38;;;3.15;;
27566;SDS011;15006;48.584;9.186;2024-02-23T11:51:19;3.13;;;1.70;;
27566;SDS011;15006;48.584;9.186;2024-02-23T11:53:49;5.88;;;1.33;;
27566;SDS011;15006;48.584;9.186;2024-02-23T11:56:15;6.07;;;1.52;;
27566;SDS011;15006;48.584;9.186;2024-02-23T11:58:43;2.90;;;1.05;;
27566;SDS011;15006;48.584;9.186;2024-02-23T12:01:09;1.90;;;0.82;;
27566;SDS011;15006;48.584;9.186;2024-02-23T12:03:35;5.40;;;1.00;;
27566;SDS011;15006;48.584;9.186;2024-02-23T12:06:03;2.25;;;0.80;;
27566;SDS011;15006;48.584;9.186;2024-02-23T12:08:30;4.60;;;1.08;;
27566;SDS011;15006;48.584;9.186;2024-02-23T12:11:03;4.40;;;1.40;;
27566;SDS011;15006;48.584;9.186;2024-02-23T12:13:36;6.20;;;1.52;;
27566;SDS011;15006;48.584;9.186;2024-02-23T12:16:03;2.00;;;1.10;;
27566;SDS011;15006;48.584;9.186;2024-02-23T12:18:32;5.20;;;1.33;;
27566;SDS011;15006;48.584;9.186;2024-02-23T12:20:59;3.00;;;0.90;;
27566;SDS011;15006;48.584;9.186;2024-02-23T12:23:39;3.42;;;1.08;;
27566;SDS011;15006;48.584;9.186;2024-02-23T12:26:16;2.63;;;1.20;;
27566;SDS011;15006;48.584;9.186;2024-02-23T12:28:43;3.78;;;1.25;;
27566;SDS011;15006;48.584;9.186;2024-02-23T12:31:10;4.03;;;1.15;;
27566;SDS011;15006;48.584;9.186;2024-02-23T12:33:37;7.35;;;1.30;;
27566;SDS011;15006;48.584;9.186;2024-02-23T12:36:07;3.97;;;1.15;;
27566;SDS011;15006;48.584;9.186;2024-02-23T12:38:35;5.00;;;1.08;;
27566;SDS011;15006;48.584;9.186;2024-02-23T12:41:01;2.55;;;1.05;;
27566;SDS011;15006;48.584;9.186;2024-02-23T12:43:28;7.78;;;1.58;;
27566;SDS011;15006;48.584;9.186;2024-02-23T12:45:54;6.22;;;1.15;;
27566;SDS011;15006;48.584;9.186;2024-02-23T12:48:23;5.32;;;1.33;;
27566;SDS011;15006;48.584;9.186;2024-02-23T12:50:49;5.20;;;1.45;;
27566;SDS011;15006;48.584;9.186;2024-02-23T12:53:34;4.95;;;1.20;;
27566;SDS011;15006;48.584;9.186;2024-02-23T12:56:05;3.70;;;1.40;;
27566;SDS011;15006;48.584;9.186;2024-02-23T12:58:34;5.75;;;1.40;;
27566;SDS011;15006;48.584;9.186;2024-02-23T13:01:01;4.65;;;1.42;;
27566;SDS011;15006;48.584;9.186;2024-02-23T13:03:27;2.13;;;0.90;;
27566;SDS011;15006;48.584;9.186;2024-02-23T13:05:54;3.60;;;1.15;;
27566;SDS011;15006;48.584;9.186;2024-02-23T13:08:22;5.63;;;1.40;;
27566;SDS011;15006;48.584;9.186;2024-02-23T13:10:49;4.15;;;1.38;;
27566;SDS011;15006;48.584;9.186;2024-02-23T13:13:16;6.57;;;1.40;;
27566;SDS011;15006;48.584;9.186;2024-02-23T13:15:43;5.10;;;1.60;;
27566;SDS011;15006;48.584;9.186;2024-02-23T13:18:10;5.07;;;1.10;;
27566;SDS011;15006;48.584;9.186;2024-02-23T13:20:36;6.15;;;1.27;;
27566;SDS011;15006;48.584;9.186;2024-02-23T13:23:04;6.15;;;1.25;;
27566;SDS011;15006;48.584;9.186;2024-02-23T13:25:33;4.15;;;1.27;;
27566;SDS011;15006;48.584;9.186;2024-02-23T13:28:01;3.40;;;1.17;;
27566;SDS011;15006;48.584;9.186;2024-02-23T13:30:27;4.47;;;1.30;;
27566;SDS011;15006;48.584;9.186;2024-02-23T13:32:54;3.30;;;0.95;;
27566;SDS011;15006;48.584;9.186;2024-02-23T13:35:20;2.75;;;0.93;;
27566;SDS011;15006;48.584;9.186;2024-02-23T13:37:47;5.15;;;1.30;;
27566;SDS011;15006;48.584;9.186;2024-02-23T13:40:13;3.92;;;1.05;;
27566;SDS011;15006;48.584;9.186;2024-02-23T13:42:39;8.30;;;1.45;;
27566;SDS011;15006;48.584;9.186;2024-02-23T13:45:08;7.25;;;1.23;;
27566;SDS011;15006;48.584;9.186;2024-02-23T13:47:34;5.22;;;1.30;;
27566;SDS011;15006;48.584;9.186;2024-02-23T13:50:01;3.75;;;0.90;;
27566;SDS011;15006;48.584;9.186;2024-02-23T13:52:28;2.22;;;1.08;;
27566;SDS011;15006;48.584;9.186;2024-02-23T13:54:54;3.20;;;1.25;;
27566;SDS011;15006;48.584;9.186;2024-02-23T13:57:20;6.60;;;1.30;;
27566;SDS011;15006;48.584;9.186;2024-02-23T13:59:47;6.47;;;1.30;;
27566;SDS011;15006;48.584;9.186;2024-02-23T14:02:13;3.60;;;1.05;;
27566;SDS011;15006;48.584;9.186;2024-02-23T14:04:39;3.75;;;1.40;;
27566;SDS011;15006;48.584;9.186;2024-02-23T14:07:06;7.13;;;1.55;;
27566;SDS011;15006;48.584;9.186;2024-02-23T14:09:32;7.43;;;1.30;;
27566;SDS011;15006;48.584;9.186;2024-02-23T14:11:59;3.42;;;1.40;;
27566;SDS011;15006;48.584;9.186;2024-02-23T14:14:25;2.58;;;1.38;;
27566;SDS011;15006;48.584;9.186;2024-02-23T14:16:50;2.92;;;1.50;;
27566;SDS011;15006;48.584;9.186;2024-02-23T14:19:16;4.35;;;1.13;;
27566;SDS011;15006;48.584;9.186;2024-02-23T14:21:45;3.53;;;1.02;;
27566;SDS011;15006;48.584;9.186;2024-02-23T14:24:13;3.72;;;1.00;;
27566;SDS011;15006;48.584;9.186;2024-02-23T14:26:39;5.28;;;1.25;;
27566;SDS011;15006;48.584;9.186;2024-02-23T14:29:05;4.88;;;1.20;;
27566;SDS011;15006;48.584;9.186;2024-02-23T14:31:31;2.97;;;1.17;;
27566;SDS011;15006;48.584;9.186;2024-02-23T14:33:57;4.07;;;1.10;;
27566;SDS011;15006;48.584;9.186;2024-02-23T14:36:23;3.40;;;0.95;;
27566;SDS011;15006;48.584;9.186;2024-02-23T14:38:49;2.97;;;1.00;;
27566;SDS011;15006;48.584;9.186;2024-02-23T14:41:15;6.43;;;1.85;;
27566;SDS011;15006;48.584;9.186;2024-02-23T14:43:41;2.13;;;1.17;;
27566;SDS011;15006;48.584;9.186;2024-02-23T14:46:07;6.18;;;1.65;;